createdAt,value
2022-09-03T00:02:11.235Z,18.39
2022-09-03T00:04:37.419Z,18.33
2022-09-03T00:07:03.626Z,18.23
2022-09-03T00:09:29.818Z,18.25
2022-09-03T00:11:56.920Z,18.26
2022-09-03T00:14:23.091Z,18.31
2022-09-03T00:16:49.304Z,18.27
2022-09-03T00:19:15.490Z,18.26
2022-09-03T00:21:41.649Z,18.25
2022-09-03T00:24:07.822Z,18.21
2022-09-03T00:26:40.628Z,18.15
2022-09-03T00:29:06.783Z,18.14
2022-09-03T00:31:33.016Z,18.12
2022-09-03T00:33:59.264Z,18.13
2022-09-03T00:36:25.462Z,18.09
2022-09-03T00:38:51.624Z,18.06
2022-09-03T00:41:17.805Z,18.08
2022-09-03T00:43:43.953Z,18.09
2022-09-03T00:46:10.199Z,18.08
2022-09-03T00:48:36.448Z,18.06
2022-09-03T00:51:05.522Z,18.02
2022-09-03T00:53:31.745Z,17.97
2022-09-03T00:55:58.003Z,18.05
2022-09-03T00:58:24.219Z,17.98
2022-09-03T01:00:50.534Z,18.00
2022-09-03T01:03:16.667Z,17.98
2022-09-03T01:05:42.831Z,17.98
2022-09-03T01:08:09.042Z,17.96
2022-09-03T01:10:35.241Z,17.95
2022-09-03T01:13:01.458Z,17.92
2022-09-03T01:15:27.700Z,17.92
2022-09-03T01:17:53.946Z,17.88
2022-09-03T01:20:20.234Z,17.87
2022-09-03T01:22:47.129Z,17.84
2022-09-03T01:25:13.267Z,17.80
2022-09-03T01:27:39.401Z,17.82
2022-09-03T01:30:05.581Z,17.83
2022-09-03T01:32:31.724Z,17.77
2022-09-03T01:34:57.881Z,17.78
2022-09-03T01:37:24.242Z,17.77
2022-09-03T01:39:50.474Z,17.71
2022-09-03T01:42:20.936Z,17.76
2022-09-03T01:44:47.403Z,17.73
2022-09-03T01:47:17.537Z,17.70
2022-09-03T01:49:43.671Z,17.67
2022-09-03T01:52:09.822Z,17.71
2022-09-03T01:54:35.977Z,17.67
2022-09-03T01:57:02.113Z,17.69
2022-09-03T01:59:28.284Z,17.69
2022-09-03T02:01:54.567Z,17.68
2022-09-03T02:04:20.756Z,17.68
2022-09-03T02:06:46.926Z,17.71
2022-09-03T02:09:13.071Z,17.64
2022-09-03T02:11:39.373Z,17.66
2022-09-03T02:14:05.535Z,17.65
2022-09-03T02:16:31.686Z,17.62
2022-09-03T02:18:57.816Z,17.63
2022-09-03T02:21:23.986Z,17.60
2022-09-03T02:23:50.126Z,17.61
2022-09-03T02:26:16.267Z,17.57
2022-09-03T02:28:42.466Z,17.58
2022-09-03T02:31:08.628Z,17.55
2022-09-03T02:33:34.853Z,17.57
2022-09-03T02:36:01.007Z,17.54
2022-09-03T02:38:27.160Z,17.56
2022-09-03T02:40:53.348Z,17.45
2022-09-03T02:43:19.572Z,17.51
2022-09-03T02:45:46.183Z,17.50
2022-09-03T02:48:12.448Z,17.52
2022-09-03T02:50:38.605Z,17.50
2022-09-03T02:53:04.748Z,17.51
2022-09-03T02:55:30.885Z,17.49
2022-09-03T02:57:57.054Z,17.49
2022-09-03T03:00:23.212Z,17.45
2022-09-03T03:02:49.429Z,17.48
2022-09-03T03:05:15.611Z,17.48
2022-09-03T03:07:41.759Z,17.50
2022-09-03T03:10:07.930Z,17.48
2022-09-03T03:12:34.102Z,17.47
2022-09-03T03:15:00.293Z,17.48
2022-09-03T03:17:26.420Z,17.45
2022-09-03T03:19:52.587Z,17.46
2022-09-03T03:22:18.735Z,17.39
2022-09-03T03:24:44.866Z,17.44
2022-09-03T03:27:11.038Z,17.40
2022-09-03T03:29:37.193Z,17.51
2022-09-03T03:32:03.359Z,17.48
2022-09-03T03:34:29.510Z,17.42
2022-09-03T03:36:55.659Z,17.40
2022-09-03T03:39:21.835Z,17.43
2022-09-03T03:41:48.009Z,17.39
2022-09-03T03:44:14.147Z,17.37
2022-09-03T03:46:40.291Z,17.41
2022-09-03T03:49:06.447Z,17.42
2022-09-03T03:51:32.589Z,17.42
2022-09-03T03:54:02.013Z,17.39
2022-09-03T03:56:30.612Z,17.37
2022-09-03T03:58:56.732Z,17.39
2022-09-03T04:01:22.940Z,17.36
2022-09-03T04:03:49.100Z,17.33
2022-09-03T04:06:15.230Z,17.37
2022-09-03T04:08:41.710Z,17.34
2022-09-03T04:11:08.362Z,17.37
2022-09-03T04:13:34.498Z,17.38
2022-09-03T04:16:00.639Z,17.36
2022-09-03T04:18:26.816Z,17.37
2022-09-03T04:20:52.964Z,17.33
2022-09-03T04:23:19.093Z,17.36
2022-09-03T04:25:45.232Z,17.36
2022-09-03T04:28:11.377Z,17.38
2022-09-03T04:30:38.838Z,17.36
2022-09-03T04:33:05.043Z,17.38
2022-09-03T04:35:31.219Z,17.38
2022-09-03T04:37:57.367Z,17.37
2022-09-03T04:40:23.523Z,17.39
2022-09-03T04:42:49.664Z,17.38
2022-09-03T04:45:15.807Z,17.43
2022-09-03T04:47:42.459Z,17.41
2022-09-03T04:50:08.598Z,17.41
2022-09-03T04:52:34.736Z,17.38
2022-09-03T04:55:00.903Z,17.36
2022-09-03T04:57:27.041Z,17.42
2022-09-03T04:59:53.192Z,17.43
2022-09-03T05:02:19.354Z,17.43
2022-09-03T05:04:45.574Z,17.50
2022-09-03T05:07:11.708Z,17.49
2022-09-03T05:09:37.865Z,17.48
2022-09-03T05:12:04.025Z,17.45
2022-09-03T05:14:30.632Z,17.46
2022-09-03T05:16:56.813Z,17.50
2022-09-03T05:19:22.961Z,17.53
2022-09-03T05:21:49.341Z,17.53
2022-09-03T05:24:15.523Z,17.57
2022-09-03T05:26:41.656Z,17.52
2022-09-03T05:29:07.808Z,17.55
2022-09-03T05:31:34.079Z,17.58
2022-09-03T05:34:00.345Z,17.64
2022-09-03T05:36:26.480Z,17.65
2022-09-03T05:38:52.643Z,17.65
2022-09-03T05:41:19.029Z,17.71
2022-09-03T05:43:45.359Z,17.70
2022-09-03T05:46:11.603Z,17.74
2022-09-03T05:48:37.800Z,17.80
2022-09-03T05:51:03.945Z,17.82
2022-09-03T05:53:30.179Z,17.82
2022-09-03T05:55:56.335Z,17.86
2022-09-03T05:58:22.503Z,17.87
2022-09-03T06:00:48.667Z,17.97
2022-09-03T06:03:14.920Z,17.92
2022-09-03T06:05:41.181Z,17.95
2022-09-03T06:08:07.333Z,18.01
2022-09-03T06:10:40.662Z,18.05
2022-09-03T06:13:07.679Z,18.07
2022-09-03T06:15:33.823Z,18.06
2022-09-03T06:17:59.965Z,18.11
2022-09-03T06:20:26.179Z,18.19
2022-09-03T06:22:52.453Z,18.18
2022-09-03T06:25:18.632Z,18.23
2022-09-03T06:27:44.840Z,18.27
2022-09-03T06:30:11.028Z,18.34
2022-09-03T06:32:37.174Z,18.41
2022-09-03T06:35:03.387Z,18.38
2022-09-03T06:37:29.530Z,18.41
2022-09-03T06:39:55.731Z,18.43
2022-09-03T06:42:21.944Z,18.48
2022-09-03T06:44:48.082Z,18.49
2022-09-03T06:47:14.217Z,18.55
2022-09-03T06:49:40.388Z,18.58
2022-09-03T06:52:07.114Z,18.59
2022-09-03T06:54:33.246Z,18.63
2022-09-03T06:56:59.413Z,18.70
2022-09-03T06:59:25.577Z,18.74
2022-09-03T07:01:51.813Z,18.76
2022-09-03T07:04:19.141Z,18.83
2022-09-03T07:06:45.586Z,18.81
2022-09-03T07:09:11.743Z,18.90
2022-09-03T07:11:38.185Z,18.96
2022-09-03T07:14:04.333Z,19.00
2022-09-03T07:16:30.557Z,19.02
2022-09-03T07:18:56.830Z,19.09
2022-09-03T07:21:22.957Z,19.15
2022-09-03T07:23:49.097Z,19.20
2022-09-03T07:26:15.291Z,19.19
2022-09-03T07:28:41.474Z,19.28
2022-09-03T07:31:07.627Z,19.36
2022-09-03T07:33:34.036Z,19.43
2022-09-03T07:36:00.197Z,19.58
2022-09-03T07:38:26.341Z,19.66
2022-09-03T07:40:52.494Z,19.81
2022-09-03T07:43:18.643Z,19.86
2022-09-03T07:45:44.774Z,19.83
2022-09-03T07:48:10.931Z,19.95
2022-09-03T07:50:37.070Z,19.90
2022-09-03T07:53:03.217Z,20.07
2022-09-03T07:55:29.367Z,20.05
2022-09-03T07:57:55.518Z,20.14
2022-09-03T08:00:21.640Z,20.18
2022-09-03T08:02:48.158Z,20.28
2022-09-03T08:05:14.280Z,20.34
2022-09-03T08:07:40.418Z,20.41
2022-09-03T08:10:07.873Z,20.51
2022-09-03T08:12:34.007Z,20.62
2022-09-03T08:15:00.133Z,20.78
2022-09-03T08:17:26.285Z,20.96
2022-09-03T08:19:52.417Z,21.07
2022-09-03T08:22:18.576Z,21.00
2022-09-03T08:24:44.756Z,21.15
2022-09-03T08:27:10.894Z,21.24
2022-09-03T08:29:37.055Z,21.25
2022-09-03T08:32:05.272Z,21.34
2022-09-03T08:34:31.654Z,21.32
2022-09-03T08:36:57.801Z,21.42
2022-09-03T08:39:24.030Z,21.49
2022-09-03T08:41:50.218Z,21.43
2022-09-03T08:44:16.360Z,21.59
2022-09-03T08:46:42.569Z,21.61
2022-09-03T08:49:08.735Z,21.69
2022-09-03T08:51:34.861Z,21.65
2022-09-03T08:54:01.014Z,21.76
2022-09-03T08:56:27.161Z,21.65
2022-09-03T08:58:53.289Z,21.64
2022-09-03T09:01:19.492Z,21.64
2022-09-03T09:03:45.698Z,21.69
2022-09-03T09:06:11.833Z,21.80
2022-09-03T09:08:37.993Z,21.84
2022-09-03T09:11:04.139Z,21.78
2022-09-03T09:13:30.337Z,21.84
2022-09-03T09:15:56.557Z,21.91
2022-09-03T09:18:22.718Z,21.98
2022-09-03T09:20:48.852Z,22.04
2022-09-03T09:23:15.020Z,22.04
2022-09-03T09:25:41.145Z,21.99
2022-09-03T09:28:07.269Z,22.07
2022-09-03T09:30:33.439Z,22.13
2022-09-03T09:32:59.566Z,22.15
2022-09-03T09:35:25.688Z,22.16
2022-09-03T09:37:51.842Z,22.07
2022-09-03T09:40:18.034Z,22.13
2022-09-03T09:42:44.260Z,22.22
2022-09-03T09:45:10.442Z,22.27
2022-09-03T09:47:36.572Z,22.45
2022-09-03T09:50:02.794Z,22.54
2022-09-03T09:52:28.975Z,22.58
2022-09-03T09:54:55.116Z,22.62
2022-09-03T09:57:21.270Z,22.63
2022-09-03T09:59:47.409Z,22.61
2022-09-03T10:02:13.665Z,22.58
2022-09-03T10:04:48.018Z,22.60
2022-09-03T10:07:14.319Z,22.75
2022-09-03T10:09:40.505Z,22.90
2022-09-03T10:12:06.654Z,22.91
2022-09-03T10:14:32.796Z,23.05
2022-09-03T10:16:58.941Z,23.14
2022-09-03T10:19:25.093Z,23.15
2022-09-03T10:21:51.273Z,23.26
2022-09-03T10:24:17.413Z,23.36
2022-09-03T10:26:43.582Z,23.53
2022-09-03T10:29:09.752Z,23.47
2022-09-03T10:31:35.973Z,23.56
2022-09-03T10:34:02.177Z,23.59
2022-09-03T10:36:28.392Z,23.57
2022-09-03T10:38:54.530Z,23.64
2022-09-03T10:41:20.680Z,23.57
2022-09-03T10:43:46.824Z,23.54
2022-09-03T10:46:12.981Z,23.64
2022-09-03T10:48:39.187Z,23.61
2022-09-03T10:51:05.337Z,23.63
2022-09-03T10:53:31.493Z,23.52
2022-09-03T10:55:57.636Z,23.58
2022-09-03T10:58:23.822Z,23.61
2022-09-03T11:00:50.065Z,23.71
2022-09-03T11:03:16.204Z,23.74
2022-09-03T11:05:47.340Z,23.77
2022-09-03T11:08:13.498Z,23.94
2022-09-03T11:10:39.639Z,23.91
2022-09-03T11:13:06.321Z,23.91
2022-09-03T11:15:32.554Z,24.06
2022-09-03T11:17:58.773Z,24.15
2022-09-03T11:20:24.941Z,24.18
2022-09-03T11:22:51.154Z,24.24
2022-09-03T11:25:17.303Z,24.39
2022-09-03T11:27:43.463Z,24.50
2022-09-03T11:30:09.629Z,24.61
2022-09-03T11:32:35.783Z,24.61
2022-09-03T11:35:01.934Z,24.60
2022-09-03T11:37:28.203Z,24.64
2022-09-03T11:39:54.409Z,24.68
2022-09-03T11:42:22.781Z,24.77
2022-09-03T11:44:51.158Z,24.87
2022-09-03T11:47:18.139Z,24.93
2022-09-03T11:49:44.301Z,24.86
2022-09-03T11:52:10.448Z,24.98
2022-09-03T11:54:36.583Z,25.00
2022-09-03T11:57:02.766Z,24.85
2022-09-03T11:59:28.911Z,24.85
2022-09-03T12:01:55.052Z,24.86
2022-09-03T12:04:21.266Z,24.92
2022-09-03T12:06:47.447Z,24.83
2022-09-03T12:09:13.599Z,24.95
2022-09-03T12:11:39.750Z,24.87
2022-09-03T12:14:06.446Z,25.02
2022-09-03T12:16:33.181Z,25.06
2022-09-03T12:18:59.341Z,25.15
2022-09-03T12:21:25.482Z,25.03
2022-09-03T12:23:51.624Z,24.97
2022-09-03T12:26:24.524Z,25.02
2022-09-03T12:28:51.854Z,25.25
2022-09-03T12:31:18.171Z,25.37
2022-09-03T12:33:44.353Z,25.41
2022-09-03T12:36:10.486Z,25.37
2022-09-03T12:39:00.702Z,25.12
2022-09-03T12:41:26.918Z,25.02
2022-09-03T12:43:53.735Z,24.72
2022-09-03T12:46:20.034Z,25.04
2022-09-03T12:49:29.688Z,25.18
2022-09-03T12:51:56.720Z,25.34
2022-09-03T12:54:23.207Z,25.38
2022-09-03T12:56:49.355Z,25.12
2022-09-03T12:59:15.490Z,24.98
2022-09-03T13:01:41.839Z,25.20
2022-09-03T13:04:08.093Z,25.25
2022-09-03T13:06:36.480Z,25.24
2022-09-03T13:09:02.628Z,25.46
2022-09-03T13:11:28.784Z,25.48
2022-09-03T13:13:54.920Z,25.36
2022-09-03T13:16:21.112Z,25.27
2022-09-03T13:18:47.316Z,25.25
2022-09-03T13:21:13.452Z,25.09
2022-09-03T13:23:39.649Z,25.37
2022-09-03T13:26:06.311Z,25.59
2022-09-03T13:28:32.675Z,25.72
2022-09-03T13:30:59.421Z,25.21
2022-09-03T13:33:26.541Z,25.36
2022-09-03T13:35:55.512Z,25.45
2022-09-03T13:38:21.696Z,25.59
2022-09-03T13:40:47.830Z,25.55
2022-09-03T13:43:13.986Z,25.59
2022-09-03T13:45:40.905Z,25.56
2022-09-03T13:48:07.107Z,25.66
2022-09-03T13:50:33.253Z,25.87
2022-09-03T13:52:59.486Z,25.99
2022-09-03T13:55:25.660Z,26.11
2022-09-03T13:57:51.817Z,26.18
2022-09-03T14:00:18.045Z,26.19
2022-09-03T14:02:44.262Z,26.16
2022-09-03T14:05:10.444Z,26.00
2022-09-03T14:07:36.609Z,26.04
2022-09-03T14:10:02.762Z,25.92
2022-09-03T14:12:28.914Z,26.04
2022-09-03T14:14:55.077Z,26.16
2022-09-03T14:17:21.220Z,26.23
2022-09-03T14:19:47.363Z,26.23
2022-09-03T14:22:13.508Z,26.22
2022-09-03T14:24:39.652Z,26.24
2022-09-03T14:27:05.803Z,26.25
2022-09-03T14:29:31.961Z,26.14
2022-09-03T14:31:58.172Z,26.31
2022-09-03T14:34:24.336Z,26.35
2022-09-03T14:36:51.129Z,26.28
2022-09-03T14:39:18.279Z,26.37
2022-09-03T14:41:44.490Z,26.29
2022-09-03T14:44:10.670Z,26.36
2022-09-03T14:46:36.824Z,26.58
2022-09-03T14:49:03.018Z,26.59
2022-09-03T14:51:29.190Z,26.43
2022-09-03T14:53:55.334Z,26.35
2022-09-03T14:56:21.476Z,26.37
2022-09-03T14:58:47.644Z,26.43
2022-09-03T15:01:13.857Z,26.70
2022-09-03T15:03:40.020Z,26.65
2022-09-03T15:06:06.190Z,26.77
2022-09-03T15:08:32.342Z,26.63
2022-09-03T15:10:58.468Z,26.81
2022-09-03T15:13:26.109Z,26.52
2022-09-03T15:15:52.567Z,26.39
2022-09-03T15:18:18.693Z,26.46
2022-09-03T15:20:44.870Z,26.51
2022-09-03T15:23:11.013Z,27.52
2022-09-03T15:25:37.134Z,27.03
2022-09-03T15:28:03.577Z,26.69
2022-09-03T15:30:29.721Z,26.50
2022-09-03T15:32:55.852Z,26.53
2022-09-03T15:35:22.002Z,26.25
2022-09-03T15:37:48.141Z,26.15
2022-09-03T15:40:14.290Z,26.21
2022-09-03T15:42:40.434Z,26.22
2022-09-03T15:45:06.573Z,26.20
2022-09-03T15:47:41.240Z,26.20
2022-09-03T15:50:17.669Z,25.86
2022-09-03T15:52:43.798Z,25.73
2022-09-03T15:55:09.936Z,25.72
2022-09-03T15:57:36.098Z,25.71
2022-09-03T16:00:02.455Z,25.68
2022-09-03T16:02:28.591Z,25.74
2022-09-03T16:04:54.738Z,25.81
2022-09-03T16:07:20.879Z,25.76
2022-09-03T16:10:02.013Z,25.69
2022-09-03T16:12:33.163Z,25.64
2022-09-03T16:14:59.326Z,25.71
2022-09-03T16:17:25.457Z,25.75
2022-09-03T16:19:51.588Z,25.81
2022-09-03T16:22:17.742Z,25.83
2022-09-03T16:24:43.872Z,25.78
2022-09-03T16:27:10.028Z,25.70
2022-09-03T16:29:37.416Z,25.63
2022-09-03T16:32:03.540Z,25.53
2022-09-03T16:34:30.191Z,25.48
2022-09-03T16:36:56.317Z,25.45
2022-09-03T16:39:22.494Z,25.48
2022-09-03T16:41:49.385Z,25.34
2022-09-03T16:44:15.513Z,25.32
2022-09-03T16:46:41.672Z,25.22
2022-09-03T16:49:07.814Z,25.12
2022-09-03T16:51:33.945Z,25.08
2022-09-03T16:54:00.092Z,25.02
2022-09-03T16:56:26.236Z,24.98
2022-09-03T16:58:52.492Z,24.86
2022-09-03T17:01:18.814Z,24.84
2022-09-03T17:03:45.024Z,24.71
2022-09-03T17:06:11.168Z,24.69
2022-09-03T17:08:37.300Z,24.61
2022-09-03T17:11:03.460Z,24.56
2022-09-03T17:13:29.849Z,24.53
2022-09-03T17:15:56.035Z,24.45
2022-09-03T17:18:22.225Z,24.37
2022-09-03T17:20:49.568Z,24.30
2022-09-03T17:23:15.837Z,24.17
2022-09-03T17:25:41.982Z,24.13
2022-09-03T17:28:08.321Z,24.10
2022-09-03T17:30:34.455Z,23.99
2022-09-03T17:33:00.627Z,23.86
2022-09-03T17:35:26.801Z,23.79
2022-09-03T17:37:52.939Z,23.73
2022-09-03T17:40:19.085Z,23.67
2022-09-03T17:42:45.224Z,23.63
2022-09-03T17:45:11.353Z,23.56
2022-09-03T17:47:37.496Z,23.50
2022-09-03T17:50:03.629Z,23.38
2022-09-03T17:52:29.757Z,23.41
2022-09-03T17:54:55.934Z,23.34
2022-09-03T17:57:22.066Z,23.28
2022-09-03T17:59:48.206Z,23.20
2022-09-03T18:02:14.355Z,23.17
2022-09-03T18:04:41.648Z,23.16
2022-09-03T18:07:07.785Z,23.06
2022-09-03T18:09:37.738Z,23.02
2022-09-03T18:12:04.178Z,23.01
2022-09-03T18:14:30.358Z,22.89
2022-09-03T18:16:56.535Z,22.81
2022-09-03T18:19:22.665Z,22.73
2022-09-03T18:21:48.806Z,22.68
2022-09-03T18:24:14.958Z,22.70
2022-09-03T18:26:41.134Z,22.66
2022-09-03T18:29:07.281Z,22.67
2022-09-03T18:31:33.485Z,22.61
2022-09-03T18:33:59.625Z,22.57
2022-09-03T18:36:25.766Z,22.60
2022-09-03T18:38:51.971Z,22.54
2022-09-03T18:41:18.670Z,22.51
2022-09-03T18:43:44.816Z,22.47
2022-09-03T18:48:57.960Z,22.39
2022-09-03T18:51:24.186Z,22.28
2022-09-03T18:53:50.327Z,22.34
2022-09-03T18:56:17.569Z,22.23
2022-09-03T18:58:43.732Z,22.21
2022-09-03T19:01:09.876Z,22.17
2022-09-03T19:03:36.009Z,22.09
2022-09-03T19:06:02.178Z,22.11
2022-09-03T19:08:28.325Z,22.05
2022-09-03T19:10:54.470Z,22.07
2022-09-03T19:13:20.608Z,21.95
2022-09-03T19:15:46.774Z,21.91
2022-09-03T19:18:12.939Z,21.82
2022-09-03T19:20:39.098Z,21.79
2022-09-03T19:23:05.228Z,21.74
2022-09-03T19:25:31.364Z,21.69
2022-09-03T19:28:00.171Z,21.63
2022-09-03T19:30:26.522Z,21.58
2022-09-03T19:32:52.673Z,21.57
2022-09-03T19:35:18.831Z,21.51
2022-09-03T19:37:44.975Z,21.43
2022-09-03T19:40:11.114Z,21.30
2022-09-03T19:42:37.308Z,21.27
2022-09-03T19:45:03.460Z,21.24
2022-09-03T19:47:29.620Z,21.21
2022-09-03T19:49:55.774Z,21.15
2022-09-03T19:52:21.908Z,21.11
2022-09-03T19:54:48.044Z,21.04
2022-09-03T19:57:14.211Z,21.06
2022-09-03T19:59:40.366Z,20.96
2022-09-03T20:02:06.502Z,20.99
2022-09-03T20:04:32.672Z,20.85
2022-09-03T20:06:58.814Z,20.75
2022-09-03T20:09:24.966Z,20.75
2022-09-03T20:11:51.114Z,20.67
2022-09-03T20:14:17.256Z,20.66
2022-09-03T20:16:43.406Z,20.47
2022-09-03T20:19:09.566Z,20.54
2022-09-03T20:21:35.729Z,20.51
2022-09-03T20:24:02.724Z,20.43
2022-09-03T20:26:28.867Z,20.45
2022-09-03T20:28:55.004Z,20.31
2022-09-03T20:31:21.190Z,20.22
2022-09-03T20:33:47.412Z,20.27
2022-09-03T20:36:13.549Z,20.22
2022-09-03T20:38:39.692Z,20.12
2022-09-03T20:41:05.829Z,20.14
2022-09-03T20:43:31.958Z,20.08
2022-09-03T20:45:58.163Z,20.09
2022-09-03T20:48:25.003Z,20.04
2022-09-03T20:50:51.232Z,19.96
2022-09-03T20:53:17.382Z,19.91
2022-09-03T20:55:43.539Z,19.90
2022-09-03T20:58:09.691Z,19.81
2022-09-03T21:00:39.044Z,19.82
2022-09-03T21:03:05.209Z,19.84
2022-09-03T21:05:31.374Z,19.76
2022-09-03T21:07:57.497Z,19.66
2022-09-03T21:10:23.659Z,19.71
2022-09-03T21:12:49.799Z,19.67
2022-09-03T21:15:15.936Z,19.63
2022-09-03T21:17:42.088Z,19.57
2022-09-03T21:20:08.223Z,19.58
2022-09-03T21:22:34.363Z,19.63
2022-09-03T21:25:00.518Z,19.62
2022-09-03T21:27:26.651Z,19.50
2022-09-03T21:29:52.794Z,19.53
2022-09-03T21:32:18.945Z,19.48
2022-09-03T21:34:45.076Z,19.43
2022-09-03T21:37:11.216Z,19.43
2022-09-03T21:39:37.463Z,19.42
2022-09-03T21:42:03.614Z,19.45
2022-09-03T21:44:29.748Z,19.34
2022-09-03T21:46:56.412Z,19.32
2022-09-03T21:49:22.544Z,19.23
2022-09-03T21:51:48.926Z,19.24
2022-09-03T21:54:15.154Z,19.18
2022-09-03T21:56:41.397Z,19.28
2022-09-03T21:59:09.358Z,19.29
2022-09-03T22:01:35.823Z,19.22
2022-09-03T22:04:02.022Z,19.28
2022-09-03T22:06:28.141Z,19.29
2022-09-03T22:08:54.285Z,19.27
2022-09-03T22:11:20.414Z,19.18
2022-09-03T22:13:46.538Z,19.26
2022-09-03T22:16:12.889Z,19.39
2022-09-03T22:18:39.049Z,19.25
2022-09-03T22:21:05.189Z,19.24
2022-09-03T22:23:31.340Z,19.16
2022-09-03T22:25:57.473Z,19.10
2022-09-03T22:28:23.610Z,19.13
2022-09-03T22:30:49.825Z,19.08
2022-09-03T22:33:16.013Z,19.08
2022-09-03T22:35:42.155Z,19.05
2022-09-03T22:38:08.305Z,19.09
2022-09-03T22:40:34.442Z,19.05
2022-09-03T22:43:00.578Z,19.05
2022-09-03T22:45:26.731Z,19.02
2022-09-03T22:47:52.862Z,19.01
2022-09-03T22:50:19.422Z,18.93
2022-09-03T22:52:45.870Z,18.99
2022-09-03T22:55:12.007Z,19.01
2022-09-03T22:57:38.141Z,18.92
2022-09-03T23:00:04.304Z,18.95
2022-09-03T23:02:30.455Z,18.95
2022-09-03T23:04:56.593Z,18.89
2022-09-03T23:07:22.963Z,18.90
2022-09-03T23:09:49.108Z,18.90
2022-09-03T23:12:15.247Z,18.93
2022-09-03T23:14:41.406Z,18.87
2022-09-03T23:17:07.557Z,18.82
2022-09-03T23:19:33.689Z,18.81
2022-09-03T23:21:59.843Z,18.80
2022-09-03T23:24:25.981Z,18.80
2022-09-03T23:26:52.119Z,18.78
2022-09-03T23:29:18.273Z,18.77
2022-09-03T23:31:44.426Z,18.67
2022-09-03T23:34:10.560Z,18.67
2022-09-03T23:36:57.989Z,18.66
2022-09-03T23:39:22.852Z,18.66
2022-09-03T23:41:49.044Z,18.65
2022-09-03T23:44:17.394Z,18.62
2022-09-03T23:46:43.637Z,18.63
2022-09-03T23:49:09.789Z,18.63
2022-09-03T23:51:35.927Z,18.63
2022-09-03T23:54:02.066Z,18.57
2022-09-03T23:56:28.510Z,18.59
2022-09-03T23:58:54.646Z,18.57
